sensor_id;sensor_type;location;lat;lon;timestamp;P1;durP1;ratioP1;P2;durP2;ratioP2
55539;SDS011;41384;51.418;7.286;2022-11-15T00:01:44;12.20;;;4.97;;
55539;SDS011;41384;51.418;7.286;2022-11-15T00:04:09;10.40;;;4.82;;
55539;SDS011;41384;51.418;7.286;2022-11-15T00:06:35;8.55;;;4.80;;
55539;SDS011;41384;51.418;7.286;2022-11-15T00:09:01;6.93;;;4.70;;
55539;SDS011;41384;51.418;7.286;2022-11-15T00:11:26;8.65;;;4.60;;
55539;SDS011;41384;51.418;7.286;2022-11-15T00:13:54;10.02;;;4.80;;
55539;SDS011;41384;51.418;7.286;2022-11-15T00:16:20;8.77;;;4.45;;
55539;SDS011;41384;51.418;7.286;2022-11-15T00:18:46;10.20;;;5.05;;
55539;SDS011;41384;51.418;7.286;2022-11-15T00:21:11;7.50;;;4.30;;
55539;SDS011;41384;51.418;7.286;2022-11-15T00:23:38;7.88;;;4.22;;
55539;SDS011;41384;51.418;7.286;2022-11-15T00:26:03;9.32;;;4.38;;
55539;SDS011;41384;51.418;7.286;2022-11-15T00:28:29;7.55;;;4.53;;
55539;SDS011;41384;51.418;7.286;2022-11-15T00:30:59;8.20;;;4.57;;
55539;SDS011;41384;51.418;7.286;2022-11-15T00:33:28;7.13;;;5.18;;
55539;SDS011;41384;51.418;7.286;2022-11-15T00:35:59;10.27;;;4.38;;
55539;SDS011;41384;51.418;7.286;2022-11-15T00:38:35;9.07;;;3.95;;
55539;SDS011;41384;51.418;7.286;2022-11-15T00:41:04;10.07;;;4.75;;
55539;SDS011;41384;51.418;7.286;2022-11-15T00:43:31;9.95;;;4.65;;
55539;SDS011;41384;51.418;7.286;2022-11-15T00:45:56;10.13;;;4.85;;
55539;SDS011;41384;51.418;7.286;2022-11-15T00:48:22;9.20;;;4.63;;
55539;SDS011;41384;51.418;7.286;2022-11-15T00:50:47;8.00;;;4.88;;
55539;SDS011;41384;51.418;7.286;2022-11-15T00:53:13;9.73;;;4.25;;
55539;SDS011;41384;51.418;7.286;2022-11-15T00:55:38;7.65;;;4.60;;
55539;SDS011;41384;51.418;7.286;2022-11-15T00:58:03;8.40;;;5.13;;
55539;SDS011;41384;51.418;7.286;2022-11-15T01:00:29;8.73;;;4.75;;
55539;SDS011;41384;51.418;7.286;2022-11-15T01:02:54;8.23;;;4.80;;
55539;SDS011;41384;51.418;7.286;2022-11-15T01:05:19;9.27;;;4.47;;
55539;SDS011;41384;51.418;7.286;2022-11-15T01:07:45;7.40;;;4.60;;
55539;SDS011;41384;51.418;7.286;2022-11-15T01:10:11;9.40;;;4.10;;
55539;SDS011;41384;51.418;7.286;2022-11-15T01:12:36;9.43;;;4.93;;
55539;SDS011;41384;51.418;7.286;2022-11-15T01:15:02;8.18;;;4.35;;
55539;SDS011;41384;51.418;7.286;2022-11-15T01:17:28;6.80;;;3.85;;
55539;SDS011;41384;51.418;7.286;2022-11-15T01:19:55;8.63;;;4.75;;
55539;SDS011;41384;51.418;7.286;2022-11-15T01:22:20;8.38;;;4.38;;
55539;SDS011;41384;51.418;7.286;2022-11-15T01:24:45;8.40;;;4.78;;
55539;SDS011;41384;51.418;7.286;2022-11-15T01:27:10;6.32;;;3.95;;
55539;SDS011;41384;51.418;7.286;2022-11-15T01:29:36;8.68;;;4.53;;
55539;SDS011;41384;51.418;7.286;2022-11-15T01:32:01;9.23;;;4.50;;
55539;SDS011;41384;51.418;7.286;2022-11-15T01:34:26;7.68;;;4.25;;
55539;SDS011;41384;51.418;7.286;2022-11-15T01:36:52;6.60;;;4.25;;
55539;SDS011;41384;51.418;7.286;2022-11-15T01:39:17;9.30;;;4.45;;
55539;SDS011;41384;51.418;7.286;2022-11-15T01:41:43;8.30;;;4.28;;
55539;SDS011;41384;51.418;7.286;2022-11-15T01:46:55;11.55;;;5.22;;
55539;SDS011;41384;51.418;7.286;2022-11-15T01:49:22;9.00;;;4.45;;
55539;SDS011;41384;51.418;7.286;2022-11-15T01:51:48;7.45;;;4.00;;
55539;SDS011;41384;51.418;7.286;2022-11-15T01:54:15;7.18;;;4.35;;
55539;SDS011;41384;51.418;7.286;2022-11-15T01:56:48;8.45;;;4.70;;
55539;SDS011;41384;51.418;7.286;2022-11-15T01:59:20;6.60;;;4.45;;
55539;SDS011;41384;51.418;7.286;2022-11-15T02:01:47;5.63;;;3.67;;
55539;SDS011;41384;51.418;7.286;2022-11-15T02:04:16;12.05;;;5.35;;
55539;SDS011;41384;51.418;7.286;2022-11-15T02:06:49;9.85;;;4.53;;
55539;SDS011;41384;51.418;7.286;2022-11-15T02:09:16;8.45;;;4.32;;
55539;SDS011;41384;51.418;7.286;2022-11-15T02:11:42;8.85;;;4.40;;
55539;SDS011;41384;51.418;7.286;2022-11-15T02:14:09;7.78;;;4.32;;
55539;SDS011;41384;51.418;7.286;2022-11-15T02:30:31;6.85;;;4.45;;
55539;SDS011;41384;51.418;7.286;2022-11-15T02:36:13;6.28;;;4.05;;
55539;SDS011;41384;51.418;7.286;2022-11-15T02:38:47;9.85;;;5.25;;
55539;SDS011;41384;51.418;7.286;2022-11-15T02:41:30;9.75;;;4.40;;
55539;SDS011;41384;51.418;7.286;2022-11-15T02:44:08;8.02;;;4.65;;
55539;SDS011;41384;51.418;7.286;2022-11-15T02:46:50;8.47;;;4.83;;
55539;SDS011;41384;51.418;7.286;2022-11-15T02:49:37;7.90;;;4.47;;
55539;SDS011;41384;51.418;7.286;2022-11-15T02:52:06;9.32;;;4.88;;
55539;SDS011;41384;51.418;7.286;2022-11-15T02:54:32;9.45;;;4.20;;
55539;SDS011;41384;51.418;7.286;2022-11-15T02:57:00;9.48;;;5.28;;
55539;SDS011;41384;51.418;7.286;2022-11-15T03:00:10;8.98;;;4.88;;
55539;SDS011;41384;51.418;7.286;2022-11-15T03:02:32;7.22;;;4.50;;
55539;SDS011;41384;51.418;7.286;2022-11-15T03:05:04;5.95;;;4.35;;
55539;SDS011;41384;51.418;7.286;2022-11-15T03:10:26;10.18;;;4.93;;
55539;SDS011;41384;51.418;7.286;2022-11-15T03:13:11;8.10;;;4.65;;
55539;SDS011;41384;51.418;7.286;2022-11-15T03:15:41;8.55;;;4.50;;
55539;SDS011;41384;51.418;7.286;2022-11-15T03:18:16;8.95;;;5.40;;
55539;SDS011;41384;51.418;7.286;2022-11-15T03:20:47;8.20;;;4.78;;
55539;SDS011;41384;51.418;7.286;2022-11-15T03:23:14;8.93;;;4.45;;
55539;SDS011;41384;51.418;7.286;2022-11-15T03:25:41;9.80;;;4.72;;
55539;SDS011;41384;51.418;7.286;2022-11-15T03:28:08;9.63;;;4.75;;
55539;SDS011;41384;51.418;7.286;2022-11-15T03:30:37;7.47;;;4.65;;
55539;SDS011;41384;51.418;7.286;2022-11-15T03:33:04;6.38;;;4.22;;
55539;SDS011;41384;51.418;7.286;2022-11-15T03:35:33;6.80;;;4.38;;
55539;SDS011;41384;51.418;7.286;2022-11-15T03:38:06;11.95;;;5.65;;
55539;SDS011;41384;51.418;7.286;2022-11-15T03:40:40;7.32;;;4.28;;
55539;SDS011;41384;51.418;7.286;2022-11-15T03:45:37;6.65;;;4.13;;
55539;SDS011;41384;51.418;7.286;2022-11-15T03:48:10;6.55;;;4.30;;
55539;SDS011;41384;51.418;7.286;2022-11-15T03:50:39;10.23;;;4.93;;
55539;SDS011;41384;51.418;7.286;2022-11-15T03:53:05;8.55;;;4.80;;
55539;SDS011;41384;51.418;7.286;2022-11-15T03:55:31;7.07;;;3.92;;
55539;SDS011;41384;51.418;7.286;2022-11-15T03:57:58;7.03;;;3.92;;
55539;SDS011;41384;51.418;7.286;2022-11-15T04:00:25;7.38;;;4.40;;
55539;SDS011;41384;51.418;7.286;2022-11-15T04:02:51;8.77;;;4.25;;
55539;SDS011;41384;51.418;7.286;2022-11-15T04:05:16;8.40;;;4.47;;
55539;SDS011;41384;51.418;7.286;2022-11-15T04:07:42;6.38;;;4.03;;
55539;SDS011;41384;51.418;7.286;2022-11-15T04:10:08;6.53;;;3.80;;
55539;SDS011;41384;51.418;7.286;2022-11-15T04:12:36;6.35;;;3.88;;
55539;SDS011;41384;51.418;7.286;2022-11-15T04:17:36;7.05;;;4.13;;
55539;SDS011;41384;51.418;7.286;2022-11-15T04:20:07;6.75;;;4.80;;
55539;SDS011;41384;51.418;7.286;2022-11-15T04:22:54;7.43;;;4.07;;
55539;SDS011;41384;51.418;7.286;2022-11-15T04:25:39;7.72;;;4.38;;
55539;SDS011;41384;51.418;7.286;2022-11-15T04:28:06;7.45;;;4.00;;
55539;SDS011;41384;51.418;7.286;2022-11-15T04:30:31;7.57;;;4.28;;
55539;SDS011;41384;51.418;7.286;2022-11-15T04:32:56;6.40;;;3.95;;
55539;SDS011;41384;51.418;7.286;2022-11-15T04:35:22;7.55;;;4.25;;
55539;SDS011;41384;51.418;7.286;2022-11-15T04:37:47;6.85;;;4.03;;
55539;SDS011;41384;51.418;7.286;2022-11-15T04:40:12;7.80;;;3.53;;
55539;SDS011;41384;51.418;7.286;2022-11-15T04:42:40;7.07;;;4.15;;
55539;SDS011;41384;51.418;7.286;2022-11-15T04:45:06;9.20;;;4.57;;
55539;SDS011;41384;51.418;7.286;2022-11-15T04:47:32;7.82;;;4.53;;
55539;SDS011;41384;51.418;7.286;2022-11-15T04:49:57;7.22;;;4.20;;
55539;SDS011;41384;51.418;7.286;2022-11-15T04:52:22;8.05;;;4.78;;
55539;SDS011;41384;51.418;7.286;2022-11-15T04:54:48;8.68;;;4.68;;
55539;SDS011;41384;51.418;7.286;2022-11-15T04:57:13;8.60;;;4.80;;
55539;SDS011;41384;51.418;7.286;2022-11-15T04:59:39;6.53;;;4.78;;
55539;SDS011;41384;51.418;7.286;2022-11-15T05:02:04;8.25;;;4.80;;
55539;SDS011;41384;51.418;7.286;2022-11-15T05:04:29;7.00;;;4.47;;
55539;SDS011;41384;51.418;7.286;2022-11-15T05:06:54;8.10;;;4.45;;
55539;SDS011;41384;51.418;7.286;2022-11-15T05:09:20;7.97;;;4.78;;
55539;SDS011;41384;51.418;7.286;2022-11-15T05:11:46;8.20;;;4.60;;
55539;SDS011;41384;51.418;7.286;2022-11-15T05:14:12;6.95;;;4.60;;
55539;SDS011;41384;51.418;7.286;2022-11-15T05:16:37;6.65;;;3.97;;
55539;SDS011;41384;51.418;7.286;2022-11-15T05:19:03;6.53;;;4.47;;
55539;SDS011;41384;51.418;7.286;2022-11-15T05:21:28;7.18;;;4.47;;
55539;SDS011;41384;51.418;7.286;2022-11-15T05:23:54;8.13;;;4.65;;
55539;SDS011;41384;51.418;7.286;2022-11-15T05:26:19;8.25;;;4.50;;
55539;SDS011;41384;51.418;7.286;2022-11-15T05:28:44;7.13;;;4.25;;
55539;SDS011;41384;51.418;7.286;2022-11-15T05:31:11;8.70;;;4.53;;
55539;SDS011;41384;51.418;7.286;2022-11-15T05:33:39;6.53;;;4.30;;
55539;SDS011;41384;51.418;7.286;2022-11-15T05:38:54;5.93;;;4.05;;
55539;SDS011;41384;51.418;7.286;2022-11-15T05:41:20;8.27;;;4.05;;
55539;SDS011;41384;51.418;7.286;2022-11-15T05:43:51;7.32;;;3.78;;
55539;SDS011;41384;51.418;7.286;2022-11-15T05:46:18;7.10;;;4.10;;
55539;SDS011;41384;51.418;7.286;2022-11-15T05:48:44;5.82;;;3.83;;
55539;SDS011;41384;51.418;7.286;2022-11-15T05:51:12;5.80;;;3.90;;
55539;SDS011;41384;51.418;7.286;2022-11-15T05:53:40;6.82;;;3.85;;
55539;SDS011;41384;51.418;7.286;2022-11-15T05:56:06;8.30;;;3.83;;
55539;SDS011;41384;51.418;7.286;2022-11-15T05:58:33;6.35;;;3.70;;
55539;SDS011;41384;51.418;7.286;2022-11-15T06:00:59;9.23;;;4.57;;
55539;SDS011;41384;51.418;7.286;2022-11-15T06:03:25;5.43;;;3.90;;
55539;SDS011;41384;51.418;7.286;2022-11-15T06:05:50;6.32;;;3.78;;
55539;SDS011;41384;51.418;7.286;2022-11-15T06:08:15;6.45;;;3.85;;
55539;SDS011;41384;51.418;7.286;2022-11-15T06:10:41;5.65;;;3.63;;
55539;SDS011;41384;51.418;7.286;2022-11-15T06:13:06;8.48;;;3.83;;
55539;SDS011;41384;51.418;7.286;2022-11-15T06:15:32;5.68;;;3.50;;
55539;SDS011;41384;51.418;7.286;2022-11-15T06:17:59;8.05;;;3.83;;
55539;SDS011;41384;51.418;7.286;2022-11-15T06:20:25;5.28;;;2.63;;
55539;SDS011;41384;51.418;7.286;2022-11-15T06:22:51;4.95;;;3.47;;
55539;SDS011;41384;51.418;7.286;2022-11-15T06:25:21;4.18;;;3.08;;
55539;SDS011;41384;51.418;7.286;2022-11-15T06:27:50;5.93;;;2.75;;
55539;SDS011;41384;51.418;7.286;2022-11-15T06:30:19;3.47;;;2.40;;
55539;SDS011;41384;51.418;7.286;2022-11-15T06:32:45;5.60;;;2.50;;
55539;SDS011;41384;51.418;7.286;2022-11-15T06:35:10;4.50;;;2.65;;
55539;SDS011;41384;51.418;7.286;2022-11-15T06:37:36;4.55;;;3.00;;
55539;SDS011;41384;51.418;7.286;2022-11-15T06:40:01;4.80;;;2.25;;
55539;SDS011;41384;51.418;7.286;2022-11-15T06:42:26;3.15;;;2.20;;
55539;SDS011;41384;51.418;7.286;2022-11-15T06:44:52;5.65;;;2.55;;
55539;SDS011;41384;51.418;7.286;2022-11-15T06:47:17;4.57;;;2.35;;
55539;SDS011;41384;51.418;7.286;2022-11-15T06:49:42;3.70;;;2.55;;
55539;SDS011;41384;51.418;7.286;2022-11-15T06:52:07;3.95;;;2.35;;
55539;SDS011;41384;51.418;7.286;2022-11-15T06:54:33;3.47;;;2.15;;
55539;SDS011;41384;51.418;7.286;2022-11-15T06:56:58;3.40;;;2.35;;
55539;SDS011;41384;51.418;7.286;2022-11-15T06:59:23;5.07;;;2.22;;
55539;SDS011;41384;51.418;7.286;2022-11-15T07:01:49;3.88;;;1.85;;
55539;SDS011;41384;51.418;7.286;2022-11-15T07:04:14;3.40;;;2.30;;
55539;SDS011;41384;51.418;7.286;2022-11-15T07:06:39;3.38;;;2.20;;
55539;SDS011;41384;51.418;7.286;2022-11-15T07:09:04;5.95;;;2.08;;
55539;SDS011;41384;51.418;7.286;2022-11-15T07:11:30;2.83;;;1.50;;
55539;SDS011;41384;51.418;7.286;2022-11-15T07:13:55;2.35;;;1.90;;
55539;SDS011;41384;51.418;7.286;2022-11-15T07:16:20;2.47;;;2.00;;
55539;SDS011;41384;51.418;7.286;2022-11-15T07:18:46;3.28;;;2.13;;
55539;SDS011;41384;51.418;7.286;2022-11-15T07:21:11;3.72;;;1.52;;
55539;SDS011;41384;51.418;7.286;2022-11-15T07:23:37;2.83;;;1.70;;
55539;SDS011;41384;51.418;7.286;2022-11-15T07:26:04;2.58;;;1.98;;
55539;SDS011;41384;51.418;7.286;2022-11-15T07:28:29;3.10;;;2.08;;
55539;SDS011;41384;51.418;7.286;2022-11-15T07:30:54;2.80;;;1.55;;
55539;SDS011;41384;51.418;7.286;2022-11-15T07:33:20;3.47;;;1.70;;
55539;SDS011;41384;51.418;7.286;2022-11-15T07:35:45;3.58;;;2.03;;
55539;SDS011;41384;51.418;7.286;2022-11-15T07:38:13;2.20;;;1.58;;
55539;SDS011;41384;51.418;7.286;2022-11-15T07:40:40;1.88;;;1.42;;
55539;SDS011;41384;51.418;7.286;2022-11-15T07:43:06;3.67;;;1.52;;
55539;SDS011;41384;51.418;7.286;2022-11-15T07:45:32;1.67;;;1.33;;
55539;SDS011;41384;51.418;7.286;2022-11-15T07:47:59;2.13;;;1.50;;
55539;SDS011;41384;51.418;7.286;2022-11-15T07:50:25;3.40;;;1.80;;
55539;SDS011;41384;51.418;7.286;2022-11-15T07:52:54;2.22;;;1.50;;
55539;SDS011;41384;51.418;7.286;2022-11-15T07:55:21;1.50;;;1.35;;
55539;SDS011;41384;51.418;7.286;2022-11-15T07:57:47;2.15;;;1.23;;
55539;SDS011;41384;51.418;7.286;2022-11-15T08:00:12;2.33;;;1.50;;
55539;SDS011;41384;51.418;7.286;2022-11-15T08:02:38;4.20;;;1.48;;
55539;SDS011;41384;51.418;7.286;2022-11-15T08:05:04;2.00;;;1.40;;
55539;SDS011;41384;51.418;7.286;2022-11-15T08:07:30;1.70;;;1.10;;
55539;SDS011;41384;51.418;7.286;2022-11-15T08:09:55;2.40;;;1.40;;
55539;SDS011;41384;51.418;7.286;2022-11-15T08:12:21;2.28;;;1.13;;
55539;SDS011;41384;51.418;7.286;2022-11-15T08:14:47;1.88;;;1.15;;
55539;SDS011;41384;51.418;7.286;2022-11-15T08:17:13;1.30;;;1.20;;
55539;SDS011;41384;51.418;7.286;2022-11-15T08:19:38;2.55;;;1.40;;
55539;SDS011;41384;51.418;7.286;2022-11-15T08:22:04;1.98;;;1.17;;
55539;SDS011;41384;51.418;7.286;2022-11-15T08:24:29;2.78;;;1.20;;
55539;SDS011;41384;51.418;7.286;2022-11-15T08:26:54;3.50;;;1.10;;
55539;SDS011;41384;51.418;7.286;2022-11-15T08:29:20;2.13;;;1.15;;
55539;SDS011;41384;51.418;7.286;2022-11-15T08:31:45;2.30;;;1.40;;
55539;SDS011;41384;51.418;7.286;2022-11-15T08:34:10;1.90;;;1.23;;
55539;SDS011;41384;51.418;7.286;2022-11-15T08:36:35;3.53;;;1.40;;
55539;SDS011;41384;51.418;7.286;2022-11-15T08:39:01;1.67;;;1.10;;
55539;SDS011;41384;51.418;7.286;2022-11-15T08:41:28;3.13;;;1.27;;
55539;SDS011;41384;51.418;7.286;2022-11-15T08:43:55;3.97;;;1.20;;
55539;SDS011;41384;51.418;7.286;2022-11-15T08:46:21;3.08;;;1.50;;
55539;SDS011;41384;51.418;7.286;2022-11-15T08:48:46;2.83;;;1.40;;
55539;SDS011;41384;51.418;7.286;2022-11-15T08:51:12;1.58;;;1.20;;
55539;SDS011;41384;51.418;7.286;2022-11-15T08:53:37;2.35;;;1.30;;
55539;SDS011;41384;51.418;7.286;2022-11-15T08:56:02;2.17;;;1.27;;
55539;SDS011;41384;51.418;7.286;2022-11-15T08:58:31;1.67;;;1.10;;
55539;SDS011;41384;51.418;7.286;2022-11-15T09:00:56;1.48;;;1.00;;
55539;SDS011;41384;51.418;7.286;2022-11-15T09:03:22;2.72;;;1.15;;
55539;SDS011;41384;51.418;7.286;2022-11-15T09:05:47;2.42;;;1.33;;
55539;SDS011;41384;51.418;7.286;2022-11-15T09:08:12;1.33;;;1.00;;
55539;SDS011;41384;51.418;7.286;2022-11-15T09:10:38;1.85;;;1.20;;
55539;SDS011;41384;51.418;7.286;2022-11-15T09:13:03;2.72;;;1.20;;
55539;SDS011;41384;51.418;7.286;2022-11-15T09:15:28;1.88;;;1.17;;
55539;SDS011;41384;51.418;7.286;2022-11-15T09:17:54;21.27;;;2.40;;
55539;SDS011;41384;51.418;7.286;2022-11-15T09:20:23;1.23;;;0.90;;
55539;SDS011;41384;51.418;7.286;2022-11-15T09:22:48;3.13;;;1.05;;
55539;SDS011;41384;51.418;7.286;2022-11-15T09:25:13;1.60;;;0.90;;
55539;SDS011;41384;51.418;7.286;2022-11-15T09:27:39;1.10;;;0.80;;
55539;SDS011;41384;51.418;7.286;2022-11-15T09:30:04;2.50;;;1.10;;
55539;SDS011;41384;51.418;7.286;2022-11-15T09:32:30;1.83;;;1.10;;
55539;SDS011;41384;51.418;7.286;2022-11-15T09:34:55;1.15;;;0.85;;
55539;SDS011;41384;51.418;7.286;2022-11-15T09:37:21;1.75;;;0.80;;
55539;SDS011;41384;51.418;7.286;2022-11-15T09:39:46;2.33;;;0.90;;
55539;SDS011;41384;51.418;7.286;2022-11-15T09:50:39;3.25;;;0.70;;
55539;SDS011;41384;51.418;7.286;2022-11-15T09:53:12;1.15;;;0.85;;
55539;SDS011;41384;51.418;7.286;2022-11-15T09:56:00;1.13;;;0.80;;
55539;SDS011;41384;51.418;7.286;2022-11-15T09:58:29;0.80;;;0.77;;
55539;SDS011;41384;51.418;7.286;2022-11-15T10:01:02;2.63;;;0.73;;
55539;SDS011;41384;51.418;7.286;2022-11-15T10:03:37;1.65;;;1.00;;
55539;SDS011;41384;51.418;7.286;2022-11-15T10:06:08;1.90;;;0.65;;
55539;SDS011;41384;51.418;7.286;2022-11-15T10:11:25;1.77;;;0.80;;
55539;SDS011;41384;51.418;7.286;2022-11-15T10:13:53;2.85;;;0.80;;
55539;SDS011;41384;51.418;7.286;2022-11-15T10:19:31;1.30;;;0.70;;
55539;SDS011;41384;51.418;7.286;2022-11-15T10:22:25;1.67;;;1.00;;
55539;SDS011;41384;51.418;7.286;2022-11-15T10:25:16;1.30;;;1.05;;
55539;SDS011;41384;51.418;7.286;2022-11-15T10:27:42;1.70;;;0.80;;
55539;SDS011;41384;51.418;7.286;2022-11-15T10:30:13;1.40;;;0.63;;
55539;SDS011;41384;51.418;7.286;2022-11-15T10:32:41;0.95;;;0.57;;
55539;SDS011;41384;51.418;7.286;2022-11-15T10:35:18;1.23;;;0.70;;
55539;SDS011;41384;51.418;7.286;2022-11-15T10:38:09;0.65;;;0.50;;
55539;SDS011;41384;51.418;7.286;2022-11-15T10:40:36;0.90;;;0.60;;
55539;SDS011;41384;51.418;7.286;2022-11-15T10:45:34;1.33;;;0.70;;
55539;SDS011;41384;51.418;7.286;2022-11-15T10:50:37;1.25;;;0.80;;
55539;SDS011;41384;51.418;7.286;2022-11-15T10:53:03;3.75;;;0.80;;
55539;SDS011;41384;51.418;7.286;2022-11-15T10:55:42;0.60;;;0.60;;
55539;SDS011;41384;51.418;7.286;2022-11-15T10:58:27;1.85;;;0.68;;
55539;SDS011;41384;51.418;7.286;2022-11-15T11:01:08;1.70;;;0.90;;
55539;SDS011;41384;51.418;7.286;2022-11-15T11:03:38;1.95;;;0.70;;
55539;SDS011;41384;51.418;7.286;2022-11-15T11:06:10;2.80;;;0.80;;
55539;SDS011;41384;51.418;7.286;2022-11-15T11:08:37;0.63;;;0.60;;
55539;SDS011;41384;51.418;7.286;2022-11-15T11:11:03;1.33;;;0.70;;
55539;SDS011;41384;51.418;7.286;2022-11-15T11:13:32;2.65;;;0.85;;
55539;SDS011;41384;51.418;7.286;2022-11-15T11:16:02;0.70;;;0.55;;
55539;SDS011;41384;51.418;7.286;2022-11-15T11:21:03;1.73;;;0.80;;
55539;SDS011;41384;51.418;7.286;2022-11-15T11:23:45;2.25;;;0.70;;
55539;SDS011;41384;51.418;7.286;2022-11-15T11:31:43;2.47;;;0.70;;
55539;SDS011;41384;51.418;7.286;2022-11-15T11:35:19;2.35;;;0.80;;
55539;SDS011;41384;51.418;7.286;2022-11-15T11:43:09;0.40;;;0.40;;
55539;SDS011;41384;51.418;7.286;2022-11-15T11:54:01;0.85;;;0.40;;
55539;SDS011;41384;51.418;7.286;2022-11-15T11:56:35;2.45;;;0.52;;
55539;SDS011;41384;51.418;7.286;2022-11-15T11:59:10;1.23;;;0.35;;
55539;SDS011;41384;51.418;7.286;2022-11-15T12:01:50;0.60;;;0.50;;
55539;SDS011;41384;51.418;7.286;2022-11-15T12:04:19;1.02;;;0.50;;
55539;SDS011;41384;51.418;7.286;2022-11-15T12:06:56;1.23;;;0.40;;
55539;SDS011;41384;51.418;7.286;2022-11-15T12:09:28;0.43;;;0.30;;
55539;SDS011;41384;51.418;7.286;2022-11-15T12:14:51;0.65;;;0.50;;
55539;SDS011;41384;51.418;7.286;2022-11-15T12:17:24;0.40;;;0.40;;
55539;SDS011;41384;51.418;7.286;2022-11-15T12:19:52;1.25;;;0.50;;
55539;SDS011;41384;51.418;7.286;2022-11-15T12:22:23;1.70;;;0.40;;
55539;SDS011;41384;51.418;7.286;2022-11-15T12:28:07;0.70;;;0.40;;
55539;SDS011;41384;51.418;7.286;2022-11-15T12:30:56;2.47;;;0.60;;
55539;SDS011;41384;51.418;7.286;2022-11-15T12:33:29;0.60;;;0.40;;
55539;SDS011;41384;51.418;7.286;2022-11-15T12:35:58;0.85;;;0.60;;
55539;SDS011;41384;51.418;7.286;2022-11-15T12:41:19;2.47;;;0.40;;
55539;SDS011;41384;51.418;7.286;2022-11-15T12:43:47;1.92;;;0.60;;
55539;SDS011;41384;51.418;7.286;2022-11-15T12:48:51;1.45;;;0.60;;
55539;SDS011;41384;51.418;7.286;2022-11-15T12:51:22;0.77;;;0.60;;
55539;SDS011;41384;51.418;7.286;2022-11-15T12:57:22;0.95;;;0.60;;
55539;SDS011;41384;51.418;7.286;2022-11-15T13:02:36;1.20;;;0.50;;
55539;SDS011;41384;51.418;7.286;2022-11-15T13:15:40;1.20;;;0.50;;
55539;SDS011;41384;51.418;7.286;2022-11-15T13:18:25;1.67;;;0.68;;
55539;SDS011;41384;51.418;7.286;2022-11-15T13:20:56;0.47;;;0.30;;
55539;SDS011;41384;51.418;7.286;2022-11-15T13:23:22;1.05;;;0.50;;
55539;SDS011;41384;51.418;7.286;2022-11-15T13:31:25;1.00;;;0.50;;
55539;SDS011;41384;51.418;7.286;2022-11-15T13:33:55;0.52;;;0.45;;
55539;SDS011;41384;51.418;7.286;2022-11-15T13:36:23;0.93;;;0.50;;
55539;SDS011;41384;51.418;7.286;2022-11-15T13:38:55;2.60;;;0.50;;
55539;SDS011;41384;51.418;7.286;2022-11-15T13:41:24;0.30;;;0.30;;
55539;SDS011;41384;51.418;7.286;2022-11-15T13:43:52;1.98;;;0.50;;
55539;SDS011;41384;51.418;7.286;2022-11-15T13:48:59;0.77;;;0.50;;
55539;SDS011;41384;51.418;7.286;2022-11-15T13:57:29;2.38;;;0.50;;
55539;SDS011;41384;51.418;7.286;2022-11-15T14:00:05;1.52;;;0.60;;
55539;SDS011;41384;51.418;7.286;2022-11-15T14:02:49;1.75;;;0.70;;
55539;SDS011;41384;51.418;7.286;2022-11-15T14:05:18;2.35;;;0.80;;
55539;SDS011;41384;51.418;7.286;2022-11-15T14:07:53;6.25;;;0.90;;
55539;SDS011;41384;51.418;7.286;2022-11-15T14:10:28;5.68;;;0.80;;
55539;SDS011;41384;51.418;7.286;2022-11-15T14:12:55;2.58;;;0.80;;
55539;SDS011;41384;51.418;7.286;2022-11-15T14:15:26;2.17;;;0.60;;
55539;SDS011;41384;51.418;7.286;2022-11-15T14:17:52;2.13;;;0.80;;
55539;SDS011;41384;51.418;7.286;2022-11-15T14:20:26;3.38;;;0.98;;
55539;SDS011;41384;51.418;7.286;2022-11-15T14:25:52;1.42;;;0.80;;
55539;SDS011;41384;51.418;7.286;2022-11-15T14:30:47;1.60;;;0.90;;
55539;SDS011;41384;51.418;7.286;2022-11-15T14:33:27;2.50;;;1.35;;
55539;SDS011;41384;51.418;7.286;2022-11-15T14:35:54;2.00;;;1.13;;
55539;SDS011;41384;51.418;7.286;2022-11-15T14:38:22;3.85;;;1.10;;
55539;SDS011;41384;51.418;7.286;2022-11-15T14:40:50;4.90;;;1.10;;
55539;SDS011;41384;51.418;7.286;2022-11-15T14:43:16;2.08;;;0.85;;
55539;SDS011;41384;51.418;7.286;2022-11-15T14:45:41;2.70;;;1.25;;
55539;SDS011;41384;51.418;7.286;2022-11-15T14:48:09;2.38;;;1.13;;
55539;SDS011;41384;51.418;7.286;2022-11-15T14:50:34;2.80;;;1.00;;
55539;SDS011;41384;51.418;7.286;2022-11-15T14:53:00;2.35;;;1.10;;
55539;SDS011;41384;51.418;7.286;2022-11-15T14:57:53;3.20;;;1.10;;
55539;SDS011;41384;51.418;7.286;2022-11-15T15:00:19;2.13;;;1.40;;
55539;SDS011;41384;51.418;7.286;2022-11-15T15:02:45;2.10;;;1.13;;
55539;SDS011;41384;51.418;7.286;2022-11-15T15:05:16;4.25;;;1.08;;
55539;SDS011;41384;51.418;7.286;2022-11-15T15:07:44;3.80;;;1.15;;
55539;SDS011;41384;51.418;7.286;2022-11-15T15:10:10;2.30;;;0.98;;
55539;SDS011;41384;51.418;7.286;2022-11-15T15:12:36;1.52;;;0.80;;
55539;SDS011;41384;51.418;7.286;2022-11-15T15:15:02;2.10;;;1.10;;
55539;SDS011;41384;51.418;7.286;2022-11-15T15:17:27;2.58;;;1.08;;
55539;SDS011;41384;51.418;7.286;2022-11-15T15:19:53;1.27;;;0.90;;
55539;SDS011;41384;51.418;7.286;2022-11-15T15:22:18;2.50;;;1.10;;
55539;SDS011;41384;51.418;7.286;2022-11-15T15:24:47;2.45;;;1.20;;
55539;SDS011;41384;51.418;7.286;2022-11-15T15:27:13;1.50;;;1.05;;
55539;SDS011;41384;51.418;7.286;2022-11-15T15:29:38;1.42;;;1.02;;
55539;SDS011;41384;51.418;7.286;2022-11-15T15:32:04;1.15;;;0.93;;
55539;SDS011;41384;51.418;7.286;2022-11-15T15:34:30;1.73;;;0.90;;
55539;SDS011;41384;51.418;7.286;2022-11-15T15:39:47;2.85;;;1.10;;
55539;SDS011;41384;51.418;7.286;2022-11-15T15:42:13;1.42;;;0.98;;
55539;SDS011;41384;51.418;7.286;2022-11-15T15:44:38;1.10;;;1.00;;
55539;SDS011;41384;51.418;7.286;2022-11-15T15:47:09;3.03;;;1.20;;
55539;SDS011;41384;51.418;7.286;2022-11-15T15:49:55;2.25;;;1.05;;
55539;SDS011;41384;51.418;7.286;2022-11-15T15:52:20;1.42;;;0.82;;
55539;SDS011;41384;51.418;7.286;2022-11-15T15:54:46;1.20;;;1.10;;
55539;SDS011;41384;51.418;7.286;2022-11-15T15:57:12;1.95;;;1.02;;
55539;SDS011;41384;51.418;7.286;2022-11-15T15:59:38;1.10;;;0.80;;
55539;SDS011;41384;51.418;7.286;2022-11-15T16:02:04;3.17;;;1.38;;
55539;SDS011;41384;51.418;7.286;2022-11-15T16:04:29;2.58;;;0.90;;
55539;SDS011;41384;51.418;7.286;2022-11-15T16:06:58;2.75;;;1.10;;
55539;SDS011;41384;51.418;7.286;2022-11-15T16:09:24;0.98;;;0.75;;
55539;SDS011;41384;51.418;7.286;2022-11-15T16:12:08;15.65;;;1.85;;
55539;SDS011;41384;51.418;7.286;2022-11-15T16:14:34;2.95;;;0.80;;
55539;SDS011;41384;51.418;7.286;2022-11-15T16:16:59;1.73;;;0.90;;
55539;SDS011;41384;51.418;7.286;2022-11-15T16:19:24;1.10;;;0.73;;
55539;SDS011;41384;51.418;7.286;2022-11-15T16:21:49;2.05;;;1.17;;
55539;SDS011;41384;51.418;7.286;2022-11-15T16:24:16;4.38;;;1.30;;
55539;SDS011;41384;51.418;7.286;2022-11-15T16:26:42;2.70;;;1.15;;
55539;SDS011;41384;51.418;7.286;2022-11-15T16:29:07;1.27;;;1.10;;
55539;SDS011;41384;51.418;7.286;2022-11-15T16:31:35;2.78;;;1.05;;
55539;SDS011;41384;51.418;7.286;2022-11-15T16:34:00;1.70;;;1.10;;
55539;SDS011;41384;51.418;7.286;2022-11-15T16:36:25;3.03;;;1.10;;
55539;SDS011;41384;51.418;7.286;2022-11-15T16:38:51;1.63;;;1.10;;
55539;SDS011;41384;51.418;7.286;2022-11-15T16:41:17;2.45;;;0.90;;
55539;SDS011;41384;51.418;7.286;2022-11-15T16:43:43;2.33;;;1.30;;
55539;SDS011;41384;51.418;7.286;2022-11-15T16:46:16;3.47;;;1.20;;
55539;SDS011;41384;51.418;7.286;2022-11-15T16:48:43;1.25;;;1.00;;
55539;SDS011;41384;51.418;7.286;2022-11-15T16:51:08;1.63;;;1.00;;
55539;SDS011;41384;51.418;7.286;2022-11-15T16:53:34;1.77;;;0.98;;
55539;SDS011;41384;51.418;7.286;2022-11-15T16:56:00;1.95;;;1.05;;
55539;SDS011;41384;51.418;7.286;2022-11-15T16:58:25;1.35;;;1.10;;
55539;SDS011;41384;51.418;7.286;2022-11-15T17:00:51;2.35;;;1.02;;